Terminal Aerodrome Forecast
Issued by NWS Corpus Christi, TX

Home | Current Version | Previous Version | Text Only | Print | Product List | Glossary On
Versions: 1 2 3 4 5 6 7 8 9 10 11 12 13 14 15 16 17 18 19 20 21 22
114
FTUS44 KCRP 170526
TAFVCT
TAF
KVCT 170526Z 1706/1806 14007KT 6SM BR BKN007 OVC013
      TEMPO 1706/1708 5SM BR SCT007 BKN013
     FM170800 13005KT 4SM BR VCSH OVC005
     FM171500 05006KT 6SM -SHRA BKN009 OVC022
      TEMPO 1716/1719 4SM TSRA BR SCT009CB OVC015
     FM171900 09007KT 5SM -TSRA BR SCT015CB OVC025
     FM180100 05006KT 4SM SHRA BR BKN009 OVC015=

USA.gov is the U.S. government's official web portal to all federal, state and local government web resources and services.